sensor_id;sensor_type;location;lat;lon;timestamp;P1;durP1;ratioP1;P2;durP2;ratioP2
63282;SDS011;49407;51.388;0.048;2022-08-04T00:00:27;2.65;;;1.52;;
63282;SDS011;49407;51.388;0.048;2022-08-04T00:03:06;2.80;;;1.83;;
63282;SDS011;49407;51.388;0.048;2022-08-04T00:13:41;2.17;;;1.70;;
63282;SDS011;49407;51.388;0.048;2022-08-04T00:16:30;2.45;;;1.60;;
63282;SDS011;49407;51.388;0.048;2022-08-04T00:21:59;2.53;;;1.70;;
63282;SDS011;49407;51.388;0.048;2022-08-04T00:24:30;2.42;;;1.70;;
63282;SDS011;49407;51.388;0.048;2022-08-04T00:26:57;3.38;;;1.70;;
63282;SDS011;49407;51.388;0.048;2022-08-04T00:29:26;2.85;;;1.55;;
63282;SDS011;49407;51.388;0.048;2022-08-04T00:31:54;4.55;;;1.67;;
63282;SDS011;49407;51.388;0.048;2022-08-04T00:34:27;3.80;;;1.63;;
63282;SDS011;49407;51.388;0.048;2022-08-04T00:36:55;2.42;;;1.60;;
63282;SDS011;49407;51.388;0.048;2022-08-04T00:39:23;2.00;;;1.58;;
63282;SDS011;49407;51.388;0.048;2022-08-04T00:44:47;6.40;;;1.75;;
63282;SDS011;49407;51.388;0.048;2022-08-04T00:53:05;1.65;;;1.55;;
63282;SDS011;49407;51.388;0.048;2022-08-04T00:55:41;1.65;;;1.55;;
63282;SDS011;49407;51.388;0.048;2022-08-04T01:01:05;3.65;;;1.58;;
63282;SDS011;49407;51.388;0.048;2022-08-04T01:06:36;1.73;;;1.50;;
63282;SDS011;49407;51.388;0.048;2022-08-04T01:14:58;3.72;;;1.80;;
63282;SDS011;49407;51.388;0.048;2022-08-04T01:20:08;2.47;;;1.50;;
63282;SDS011;49407;51.388;0.048;2022-08-04T01:22:42;3.45;;;1.63;;
63282;SDS011;49407;51.388;0.048;2022-08-04T01:31:19;4.60;;;1.80;;
63282;SDS011;49407;51.388;0.048;2022-08-04T01:33:53;3.10;;;1.85;;
63282;SDS011;49407;51.388;0.048;2022-08-04T01:36:32;2.85;;;1.67;;
63282;SDS011;49407;51.388;0.048;2022-08-04T01:39:01;3.33;;;1.60;;
63282;SDS011;49407;51.388;0.048;2022-08-04T01:41:53;2.67;;;1.65;;
63282;SDS011;49407;51.388;0.048;2022-08-04T01:44:24;4.68;;;2.20;;
63282;SDS011;49407;51.388;0.048;2022-08-04T01:46:55;5.28;;;1.60;;
63282;SDS011;49407;51.388;0.048;2022-08-04T01:49:22;1.80;;;1.42;;
63282;SDS011;49407;51.388;0.048;2022-08-04T01:52:09;4.68;;;1.73;;
63282;SDS011;49407;51.388;0.048;2022-08-04T01:54:37;3.60;;;1.88;;
63282;SDS011;49407;51.388;0.048;2022-08-04T01:57:06;3.22;;;1.67;;
63282;SDS011;49407;51.388;0.048;2022-08-04T01:59:57;2.90;;;1.75;;
63282;SDS011;49407;51.388;0.048;2022-08-04T02:02:25;3.05;;;1.77;;
63282;SDS011;49407;51.388;0.048;2022-08-04T02:04:52;3.40;;;1.77;;
63282;SDS011;49407;51.388;0.048;2022-08-04T02:13:13;4.45;;;1.52;;
63282;SDS011;49407;51.388;0.048;2022-08-04T02:16:01;3.95;;;1.73;;
63282;SDS011;49407;51.388;0.048;2022-08-04T02:21:42;3.03;;;1.33;;
63282;SDS011;49407;51.388;0.048;2022-08-04T02:24:17;2.80;;;2.00;;
63282;SDS011;49407;51.388;0.048;2022-08-04T02:26:49;3.67;;;1.90;;
63282;SDS011;49407;51.388;0.048;2022-08-04T02:29:20;5.28;;;1.92;;
63282;SDS011;49407;51.388;0.048;2022-08-04T02:32:03;4.53;;;1.70;;
63282;SDS011;49407;51.388;0.048;2022-08-04T02:37:14;2.65;;;1.73;;
63282;SDS011;49407;51.388;0.048;2022-08-04T02:39:43;3.40;;;1.77;;
63282;SDS011;49407;51.388;0.048;2022-08-04T02:42:14;3.65;;;1.50;;
63282;SDS011;49407;51.388;0.048;2022-08-04T02:44:45;3.53;;;1.60;;
63282;SDS011;49407;51.388;0.048;2022-08-04T02:47:19;2.70;;;1.40;;
63282;SDS011;49407;51.388;0.048;2022-08-04T02:49:48;3.13;;;1.50;;
63282;SDS011;49407;51.388;0.048;2022-08-04T02:52:18;3.55;;;1.70;;
63282;SDS011;49407;51.388;0.048;2022-08-04T02:54:46;4.88;;;1.50;;
63282;SDS011;49407;51.388;0.048;2022-08-04T02:57:16;4.55;;;1.33;;
63282;SDS011;49407;51.388;0.048;2022-08-04T03:03:23;3.58;;;1.60;;
63282;SDS011;49407;51.388;0.048;2022-08-04T03:14:51;2.65;;;1.55;;
63282;SDS011;49407;51.388;0.048;2022-08-04T03:26:23;2.42;;;1.40;;
63282;SDS011;49407;51.388;0.048;2022-08-04T03:29:19;2.35;;;1.60;;
63282;SDS011;49407;51.388;0.048;2022-08-04T03:40:46;5.05;;;1.40;;
63282;SDS011;49407;51.388;0.048;2022-08-04T03:43:38;4.22;;;1.67;;
63282;SDS011;49407;51.388;0.048;2022-08-04T04:15:18;4.28;;;1.63;;
63282;SDS011;49407;51.388;0.048;2022-08-04T04:27:07;5.55;;;1.75;;
63282;SDS011;49407;51.388;0.048;2022-08-04T04:32:58;6.70;;;1.95;;
63282;SDS011;49407;51.388;0.048;2022-08-04T04:44:30;7.38;;;2.47;;
63282;SDS011;49407;51.388;0.048;2022-08-04T04:50:31;3.80;;;2.40;;
63282;SDS011;49407;51.388;0.048;2022-08-04T04:53:19;4.15;;;2.35;;
63282;SDS011;49407;51.388;0.048;2022-08-04T04:56:02;6.70;;;2.60;;
63282;SDS011;49407;51.388;0.048;2022-08-04T04:58:34;3.20;;;2.20;;
63282;SDS011;49407;51.388;0.048;2022-08-04T05:09:29;5.05;;;2.70;;
63282;SDS011;49407;51.388;0.048;2022-08-04T05:12:34;7.47;;;2.65;;
63282;SDS011;49407;51.388;0.048;2022-08-04T05:15:36;7.30;;;2.45;;
63282;SDS011;49407;51.388;0.048;2022-08-04T05:18:08;6.82;;;2.75;;
63282;SDS011;49407;51.388;0.048;2022-08-04T05:24:08;3.75;;;2.20;;
63282;SDS011;49407;51.388;0.048;2022-08-04T05:26:39;4.07;;;2.03;;
63282;SDS011;49407;51.388;0.048;2022-08-04T05:29:12;6.50;;;2.40;;
63282;SDS011;49407;51.388;0.048;2022-08-04T05:31:56;5.53;;;2.40;;
63282;SDS011;49407;51.388;0.048;2022-08-04T05:34:27;3.40;;;1.88;;
63282;SDS011;49407;51.388;0.048;2022-08-04T05:37:07;7.40;;;2.30;;
63282;SDS011;49407;51.388;0.048;2022-08-04T05:39:47;5.05;;;2.10;;
63282;SDS011;49407;51.388;0.048;2022-08-04T05:42:19;6.22;;;1.83;;
63282;SDS011;49407;51.388;0.048;2022-08-04T05:44:48;3.85;;;1.83;;
63282;SDS011;49407;51.388;0.048;2022-08-04T05:47:16;4.65;;;2.00;;
63282;SDS011;49407;51.388;0.048;2022-08-04T05:49:47;4.65;;;2.00;;
63282;SDS011;49407;51.388;0.048;2022-08-04T05:52:27;5.07;;;1.90;;
63282;SDS011;49407;51.388;0.048;2022-08-04T05:55:00;7.88;;;2.30;;
63282;SDS011;49407;51.388;0.048;2022-08-04T05:57:28;5.38;;;2.15;;
63282;SDS011;49407;51.388;0.048;2022-08-04T05:59:56;3.03;;;1.90;;
63282;SDS011;49407;51.388;0.048;2022-08-04T06:02:25;4.28;;;1.90;;
63282;SDS011;49407;51.388;0.048;2022-08-04T06:04:54;4.00;;;1.80;;
63282;SDS011;49407;51.388;0.048;2022-08-04T06:07:23;6.63;;;2.03;;
63282;SDS011;49407;51.388;0.048;2022-08-04T06:09:52;3.60;;;2.08;;
63282;SDS011;49407;51.388;0.048;2022-08-04T06:12:21;6.00;;;2.10;;
63282;SDS011;49407;51.388;0.048;2022-08-04T06:14:56;5.60;;;1.92;;
63282;SDS011;49407;51.388;0.048;2022-08-04T06:17:27;6.20;;;2.08;;
63282;SDS011;49407;51.388;0.048;2022-08-04T06:20:27;10.50;;;2.45;;
63282;SDS011;49407;51.388;0.048;2022-08-04T06:23:01;3.60;;;1.77;;
63282;SDS011;49407;51.388;0.048;2022-08-04T06:25:37;6.85;;;1.90;;
63282;SDS011;49407;51.388;0.048;2022-08-04T06:28:08;5.63;;;1.90;;
63282;SDS011;49407;51.388;0.048;2022-08-04T06:30:36;8.70;;;2.10;;
63282;SDS011;49407;51.388;0.048;2022-08-04T06:33:07;6.30;;;1.70;;
63282;SDS011;49407;51.388;0.048;2022-08-04T06:36:18;9.20;;;2.05;;
63282;SDS011;49407;51.388;0.048;2022-08-04T06:38:46;5.00;;;1.52;;
63282;SDS011;49407;51.388;0.048;2022-08-04T06:41:24;2.80;;;2.00;;
63282;SDS011;49407;51.388;0.048;2022-08-04T06:43:52;4.55;;;1.58;;
63282;SDS011;49407;51.388;0.048;2022-08-04T06:46:20;2.95;;;1.40;;
63282;SDS011;49407;51.388;0.048;2022-08-04T06:48:47;3.50;;;1.95;;
63282;SDS011;49407;51.388;0.048;2022-08-04T06:51:16;5.88;;;1.83;;
63282;SDS011;49407;51.388;0.048;2022-08-04T06:54:09;3.47;;;1.40;;
63282;SDS011;49407;51.388;0.048;2022-08-04T07:05:33;5.68;;;1.70;;
63282;SDS011;49407;51.388;0.048;2022-08-04T07:08:04;9.02;;;2.13;;
63282;SDS011;49407;51.388;0.048;2022-08-04T07:24:31;6.32;;;1.90;;
63282;SDS011;49407;51.388;0.048;2022-08-04T07:53:21;5.10;;;1.83;;
63282;SDS011;49407;51.388;0.048;2022-08-04T07:56:14;7.72;;;1.90;;
63282;SDS011;49407;51.388;0.048;2022-08-04T07:58:55;2.92;;;1.38;;
63282;SDS011;49407;51.388;0.048;2022-08-04T08:01:31;4.78;;;1.60;;
63282;SDS011;49407;51.388;0.048;2022-08-04T08:04:11;6.95;;;1.95;;
63282;SDS011;49407;51.388;0.048;2022-08-04T08:06:40;3.63;;;2.08;;
63282;SDS011;49407;51.388;0.048;2022-08-04T08:11:49;3.78;;;1.55;;
63282;SDS011;49407;51.388;0.048;2022-08-04T08:14:37;1.85;;;1.23;;
63282;SDS011;49407;51.388;0.048;2022-08-04T08:17:05;4.45;;;1.42;;
63282;SDS011;49407;51.388;0.048;2022-08-04T08:19:32;3.17;;;1.20;;
63282;SDS011;49407;51.388;0.048;2022-08-04T08:22:01;2.90;;;1.52;;
63282;SDS011;49407;51.388;0.048;2022-08-04T08:24:29;4.00;;;1.75;;
63282;SDS011;49407;51.388;0.048;2022-08-04T08:27:02;4.63;;;1.80;;
63282;SDS011;49407;51.388;0.048;2022-08-04T08:29:32;6.65;;;1.70;;
63282;SDS011;49407;51.388;0.048;2022-08-04T08:32:01;5.70;;;1.80;;
63282;SDS011;49407;51.388;0.048;2022-08-04T08:34:34;3.80;;;1.58;;
63282;SDS011;49407;51.388;0.048;2022-08-04T08:39:38;4.43;;;1.30;;
63282;SDS011;49407;51.388;0.048;2022-08-04T08:45:06;5.72;;;1.80;;
63282;SDS011;49407;51.388;0.048;2022-08-04T08:58:01;5.75;;;1.70;;
63282;SDS011;49407;51.388;0.048;2022-08-04T09:06:46;4.55;;;1.65;;
63282;SDS011;49407;51.388;0.048;2022-08-04T09:12:40;6.05;;;1.30;;
63282;SDS011;49407;51.388;0.048;2022-08-04T09:18:13;3.30;;;1.33;;
63282;SDS011;49407;51.388;0.048;2022-08-04T09:20:48;3.17;;;1.50;;
63282;SDS011;49407;51.388;0.048;2022-08-04T09:23:23;5.75;;;1.98;;
63282;SDS011;49407;51.388;0.048;2022-08-04T09:27:19;6.28;;;1.60;;
63282;SDS011;49407;51.388;0.048;2022-08-04T09:47:08;1.92;;;1.20;;
63282;SDS011;49407;51.388;0.048;2022-08-04T09:55:07;7.78;;;1.50;;
63282;SDS011;49407;51.388;0.048;2022-08-04T09:57:52;3.13;;;1.02;;
63282;SDS011;49407;51.388;0.048;2022-08-04T10:00:21;4.15;;;0.90;;
63282;SDS011;49407;51.388;0.048;2022-08-04T10:03:06;4.30;;;1.27;;
63282;SDS011;49407;51.388;0.048;2022-08-04T10:08:59;3.22;;;1.27;;
63282;SDS011;49407;51.388;0.048;2022-08-04T10:15:01;2.67;;;0.90;;
63282;SDS011;49407;51.388;0.048;2022-08-04T10:17:50;2.65;;;0.95;;
63282;SDS011;49407;51.388;0.048;2022-08-04T10:29:44;3.30;;;1.20;;
63282;SDS011;49407;51.388;0.048;2022-08-04T10:32:34;4.13;;;1.17;;
63282;SDS011;49407;51.388;0.048;2022-08-04T10:46:31;2.55;;;0.73;;
63282;SDS011;49407;51.388;0.048;2022-08-04T10:49:12;3.38;;;1.30;;
63282;SDS011;49407;51.388;0.048;2022-08-04T10:57:25;2.03;;;1.00;;
63282;SDS011;49407;51.388;0.048;2022-08-04T11:02:43;3.08;;;1.20;;
63282;SDS011;49407;51.388;0.048;2022-08-04T11:08:12;4.57;;;1.10;;
63282;SDS011;49407;51.388;0.048;2022-08-04T11:10:50;3.33;;;1.20;;
63282;SDS011;49407;51.388;0.048;2022-08-04T11:13:28;2.25;;;1.02;;
63282;SDS011;49407;51.388;0.048;2022-08-04T11:16:04;2.40;;;1.20;;
63282;SDS011;49407;51.388;0.048;2022-08-04T11:21:27;2.60;;;0.75;;
63282;SDS011;49407;51.388;0.048;2022-08-04T11:24:02;2.63;;;0.73;;
63282;SDS011;49407;51.388;0.048;2022-08-04T11:26:40;2.15;;;0.70;;
63282;SDS011;49407;51.388;0.048;2022-08-04T11:31:48;1.08;;;0.82;;
63282;SDS011;49407;51.388;0.048;2022-08-04T11:34:21;2.70;;;0.60;;
63282;SDS011;49407;51.388;0.048;2022-08-04T11:50:21;3.03;;;0.80;;
63282;SDS011;49407;51.388;0.048;2022-08-04T11:52:53;1.98;;;0.70;;
63282;SDS011;49407;51.388;0.048;2022-08-04T11:55:23;1.48;;;0.60;;
63282;SDS011;49407;51.388;0.048;2022-08-04T11:57:54;1.53;;;0.70;;
63282;SDS011;49407;51.388;0.048;2022-08-04T12:00:24;2.13;;;0.75;;
63282;SDS011;49407;51.388;0.048;2022-08-04T12:11:13;1.05;;;0.47;;
63282;SDS011;49407;51.388;0.048;2022-08-04T12:14:03;1.95;;;0.73;;
63282;SDS011;49407;51.388;0.048;2022-08-04T12:16:51;2.65;;;0.82;;
63282;SDS011;49407;51.388;0.048;2022-08-04T12:19:40;2.03;;;0.70;;
63282;SDS011;49407;51.388;0.048;2022-08-04T12:22:36;2.03;;;0.85;;
63282;SDS011;49407;51.388;0.048;2022-08-04T12:25:15;1.85;;;0.68;;
63282;SDS011;49407;51.388;0.048;2022-08-04T12:30:17;1.92;;;0.50;;
63282;SDS011;49407;51.388;0.048;2022-08-04T12:35:57;1.35;;;0.60;;
63282;SDS011;49407;51.388;0.048;2022-08-04T12:38:38;2.58;;;0.60;;
63282;SDS011;49407;51.388;0.048;2022-08-04T12:41:22;1.85;;;0.73;;
63282;SDS011;49407;51.388;0.048;2022-08-04T12:43:51;1.85;;;0.68;;
63282;SDS011;49407;51.388;0.048;2022-08-04T12:46:24;0.85;;;0.40;;
63282;SDS011;49407;51.388;0.048;2022-08-04T12:48:58;1.80;;;0.60;;
63282;SDS011;49407;51.388;0.048;2022-08-04T12:51:35;2.08;;;0.60;;
63282;SDS011;49407;51.388;0.048;2022-08-04T12:54:25;2.30;;;0.77;;
63282;SDS011;49407;51.388;0.048;2022-08-04T12:56:57;2.17;;;0.75;;
63282;SDS011;49407;51.388;0.048;2022-08-04T12:59:26;3.10;;;0.90;;
63282;SDS011;49407;51.388;0.048;2022-08-04T13:01:54;3.55;;;0.80;;
63282;SDS011;49407;51.388;0.048;2022-08-04T13:07:34;2.88;;;0.85;;
63282;SDS011;49407;51.388;0.048;2022-08-04T13:10:10;1.60;;;0.70;;
63282;SDS011;49407;51.388;0.048;2022-08-04T13:12:49;1.50;;;0.75;;
63282;SDS011;49407;51.388;0.048;2022-08-04T13:15:26;2.03;;;0.52;;
63282;SDS011;49407;51.388;0.048;2022-08-04T13:18:00;1.25;;;0.50;;
63282;SDS011;49407;51.388;0.048;2022-08-04T13:26:48;1.38;;;0.47;;
63282;SDS011;49407;51.388;0.048;2022-08-04T13:29:33;1.30;;;0.52;;
63282;SDS011;49407;51.388;0.048;2022-08-04T13:32:23;0.98;;;0.50;;
63282;SDS011;49407;51.388;0.048;2022-08-04T13:34:51;2.92;;;0.60;;
63282;SDS011;49407;51.388;0.048;2022-08-04T13:37:25;2.83;;;0.68;;
63282;SDS011;49407;51.388;0.048;2022-08-04T13:40:31;2.85;;;0.95;;
63282;SDS011;49407;51.388;0.048;2022-08-04T13:42:59;1.65;;;0.80;;
63282;SDS011;49407;51.388;0.048;2022-08-04T13:45:28;3.15;;;1.00;;
63282;SDS011;49407;51.388;0.048;2022-08-04T13:48:00;2.38;;;0.80;;
63282;SDS011;49407;51.388;0.048;2022-08-04T13:50:50;2.40;;;0.63;;
63282;SDS011;49407;51.388;0.048;2022-08-04T13:53:34;1.42;;;0.70;;
63282;SDS011;49407;51.388;0.048;2022-08-04T13:56:04;1.98;;;0.80;;
63282;SDS011;49407;51.388;0.048;2022-08-04T13:58:34;0.82;;;0.70;;
63282;SDS011;49407;51.388;0.048;2022-08-04T14:01:18;2.88;;;0.80;;
63282;SDS011;49407;51.388;0.048;2022-08-04T14:04:02;2.83;;;0.65;;
63282;SDS011;49407;51.388;0.048;2022-08-04T14:06:35;1.13;;;0.63;;
63282;SDS011;49407;51.388;0.048;2022-08-04T14:15:00;3.40;;;0.80;;
63282;SDS011;49407;51.388;0.048;2022-08-04T14:17:27;3.22;;;0.75;;
63282;SDS011;49407;51.388;0.048;2022-08-04T14:19:58;1.55;;;0.90;;
63282;SDS011;49407;51.388;0.048;2022-08-04T14:27:42;1.02;;;0.60;;
63282;SDS011;49407;51.388;0.048;2022-08-04T14:30:30;2.50;;;0.73;;
63282;SDS011;49407;51.388;0.048;2022-08-04T14:32:59;3.67;;;0.85;;
63282;SDS011;49407;51.388;0.048;2022-08-04T14:35:55;1.92;;;0.70;;
63282;SDS011;49407;51.388;0.048;2022-08-04T14:38:24;2.83;;;0.80;;
63282;SDS011;49407;51.388;0.048;2022-08-04T14:44:31;3.67;;;0.63;;
63282;SDS011;49407;51.388;0.048;2022-08-04T14:47:42;3.53;;;0.90;;
63282;SDS011;49407;51.388;0.048;2022-08-04T14:54:33;1.48;;;0.57;;
63282;SDS011;49407;51.388;0.048;2022-08-04T14:57:03;3.20;;;0.77;;
63282;SDS011;49407;51.388;0.048;2022-08-04T14:59:47;0.70;;;0.68;;
63282;SDS011;49407;51.388;0.048;2022-08-04T15:02:25;1.75;;;0.70;;
63282;SDS011;49407;51.388;0.048;2022-08-04T15:04:55;2.80;;;0.70;;
63282;SDS011;49407;51.388;0.048;2022-08-04T15:07:46;1.58;;;0.80;;
63282;SDS011;49407;51.388;0.048;2022-08-04T15:13:12;1.75;;;0.90;;
63282;SDS011;49407;51.388;0.048;2022-08-04T15:15:40;2.28;;;0.70;;
63282;SDS011;49407;51.388;0.048;2022-08-04T15:18:26;3.40;;;0.65;;
63282;SDS011;49407;51.388;0.048;2022-08-04T15:20:56;2.90;;;0.77;;
63282;SDS011;49407;51.388;0.048;2022-08-04T15:23:25;1.98;;;0.77;;
63282;SDS011;49407;51.388;0.048;2022-08-04T15:26:04;2.58;;;0.80;;
63282;SDS011;49407;51.388;0.048;2022-08-04T15:28:35;1.08;;;0.70;;
63282;SDS011;49407;51.388;0.048;2022-08-04T15:31:04;1.65;;;0.82;;
63282;SDS011;49407;51.388;0.048;2022-08-04T15:33:54;2.25;;;0.50;;
63282;SDS011;49407;51.388;0.048;2022-08-04T15:47:24;0.98;;;0.55;;
63282;SDS011;49407;51.388;0.048;2022-08-04T15:55:43;1.85;;;0.60;;
63282;SDS011;49407;51.388;0.048;2022-08-04T15:58:18;2.17;;;1.02;;
63282;SDS011;49407;51.388;0.048;2022-08-04T16:09:02;2.80;;;0.73;;
63282;SDS011;49407;51.388;0.048;2022-08-04T16:11:45;1.73;;;0.80;;
63282;SDS011;49407;51.388;0.048;2022-08-04T16:14:13;0.88;;;0.50;;
63282;SDS011;49407;51.388;0.048;2022-08-04T16:16:45;2.47;;;1.15;;
63282;SDS011;49407;51.388;0.048;2022-08-04T16:24:40;1.25;;;0.60;;
63282;SDS011;49407;51.388;0.048;2022-08-04T16:27:08;1.75;;;0.80;;
63282;SDS011;49407;51.388;0.048;2022-08-04T16:29:43;2.25;;;0.80;;
63282;SDS011;49407;51.388;0.048;2022-08-04T16:32:13;3.50;;;0.70;;
63282;SDS011;49407;51.388;0.048;2022-08-04T16:34:44;1.27;;;0.60;;
63282;SDS011;49407;51.388;0.048;2022-08-04T16:37:34;1.70;;;0.65;;
63282;SDS011;49407;51.388;0.048;2022-08-04T16:43:05;3.70;;;0.70;;
63282;SDS011;49407;51.388;0.048;2022-08-04T16:45:42;3.00;;;0.80;;
63282;SDS011;49407;51.388;0.048;2022-08-04T16:48:10;2.20;;;0.90;;
63282;SDS011;49407;51.388;0.048;2022-08-04T16:53:59;1.60;;;0.60;;
63282;SDS011;49407;51.388;0.048;2022-08-04T16:56:31;3.28;;;0.73;;
63282;SDS011;49407;51.388;0.048;2022-08-04T16:59:07;2.13;;;0.73;;
63282;SDS011;49407;51.388;0.048;2022-08-04T17:01:36;2.97;;;0.70;;
63282;SDS011;49407;51.388;0.048;2022-08-04T17:04:13;2.42;;;0.70;;
63282;SDS011;49407;51.388;0.048;2022-08-04T17:06:41;1.05;;;0.60;;
63282;SDS011;49407;51.388;0.048;2022-08-04T17:09:11;3.35;;;0.73;;
63282;SDS011;49407;51.388;0.048;2022-08-04T17:14:46;1.35;;;0.60;;
63282;SDS011;49407;51.388;0.048;2022-08-04T17:17:13;2.28;;;0.70;;
63282;SDS011;49407;51.388;0.048;2022-08-04T17:19:40;2.65;;;1.08;;
63282;SDS011;49407;51.388;0.048;2022-08-04T17:22:17;4.18;;;0.73;;
63282;SDS011;49407;51.388;0.048;2022-08-04T17:24:45;3.92;;;0.95;;
63282;SDS011;49407;51.388;0.048;2022-08-04T17:27:13;2.42;;;0.70;;
63282;SDS011;49407;51.388;0.048;2022-08-04T17:33:34;1.73;;;0.80;;
63282;SDS011;49407;51.388;0.048;2022-08-04T17:36:26;2.22;;;0.57;;
63282;SDS011;49407;51.388;0.048;2022-08-04T17:38:59;1.15;;;0.93;;
63282;SDS011;49407;51.388;0.048;2022-08-04T17:41:31;1.77;;;0.70;;
63282;SDS011;49407;51.388;0.048;2022-08-04T17:44:04;2.85;;;0.98;;
63282;SDS011;49407;51.388;0.048;2022-08-04T17:51:55;2.80;;;0.90;;
63282;SDS011;49407;51.388;0.048;2022-08-04T17:54:35;1.10;;;0.73;;
63282;SDS011;49407;51.388;0.048;2022-08-04T17:57:15;1.95;;;0.98;;
63282;SDS011;49407;51.388;0.048;2022-08-04T18:02:51;2.80;;;1.00;;
63282;SDS011;49407;51.388;0.048;2022-08-04T18:05:26;0.70;;;0.60;;
63282;SDS011;49407;51.388;0.048;2022-08-04T18:08:16;2.30;;;0.90;;
63282;SDS011;49407;51.388;0.048;2022-08-04T18:11:04;1.13;;;0.90;;
63282;SDS011;49407;51.388;0.048;2022-08-04T18:13:33;0.95;;;0.93;;
63282;SDS011;49407;51.388;0.048;2022-08-04T18:16:11;2.70;;;0.88;;
63282;SDS011;49407;51.388;0.048;2022-08-04T18:19:10;1.73;;;0.68;;
63282;SDS011;49407;51.388;0.048;2022-08-04T18:21:52;1.60;;;0.63;;
63282;SDS011;49407;51.388;0.048;2022-08-04T18:24:26;1.83;;;0.80;;
63282;SDS011;49407;51.388;0.048;2022-08-04T18:27:16;2.67;;;1.17;;
63282;SDS011;49407;51.388;0.048;2022-08-04T18:32:53;1.45;;;0.80;;
63282;SDS011;49407;51.388;0.048;2022-08-04T18:35:40;1.98;;;0.90;;
63282;SDS011;49407;51.388;0.048;2022-08-04T18:38:27;3.45;;;1.17;;
63282;SDS011;49407;51.388;0.048;2022-08-04T18:41:01;1.02;;;0.80;;
63282;SDS011;49407;51.388;0.048;2022-08-04T18:43:34;1.38;;;1.00;;
63282;SDS011;49407;51.388;0.048;2022-08-04T18:46:06;1.88;;;0.90;;
63282;SDS011;49407;51.388;0.048;2022-08-04T18:48:40;1.13;;;0.90;;
63282;SDS011;49407;51.388;0.048;2022-08-04T18:51:10;2.88;;;0.90;;
63282;SDS011;49407;51.388;0.048;2022-08-04T18:53:50;1.98;;;0.77;;
63282;SDS011;49407;51.388;0.048;2022-08-04T18:56:25;3.70;;;0.88;;
63282;SDS011;49407;51.388;0.048;2022-08-04T18:58:57;1.40;;;0.88;;
63282;SDS011;49407;51.388;0.048;2022-08-04T19:01:35;2.33;;;0.70;;
63282;SDS011;49407;51.388;0.048;2022-08-04T19:04:22;3.35;;;0.82;;
63282;SDS011;49407;51.388;0.048;2022-08-04T19:07:02;2.97;;;0.80;;
63282;SDS011;49407;51.388;0.048;2022-08-04T19:12:57;0.95;;;0.68;;
63282;SDS011;49407;51.388;0.048;2022-08-04T19:15:27;1.13;;;0.60;;
63282;SDS011;49407;51.388;0.048;2022-08-04T19:20:34;1.10;;;0.70;;
63282;SDS011;49407;51.388;0.048;2022-08-04T19:23:04;1.75;;;0.80;;
63282;SDS011;49407;51.388;0.048;2022-08-04T19:25:51;3.90;;;0.80;;
63282;SDS011;49407;51.388;0.048;2022-08-04T19:28:32;2.00;;;1.00;;
63282;SDS011;49407;51.388;0.048;2022-08-04T19:31:03;1.48;;;0.77;;
63282;SDS011;49407;51.388;0.048;2022-08-04T19:33:31;1.52;;;1.30;;
63282;SDS011;49407;51.388;0.048;2022-08-04T19:36:19;0.68;;;0.68;;
63282;SDS011;49407;51.388;0.048;2022-08-04T19:38:54;2.70;;;0.85;;
63282;SDS011;49407;51.388;0.048;2022-08-04T19:44:32;1.48;;;0.80;;
63282;SDS011;49407;51.388;0.048;2022-08-04T19:47:09;1.92;;;1.00;;
63282;SDS011;49407;51.388;0.048;2022-08-04T19:49:56;5.70;;;1.35;;
63282;SDS011;49407;51.388;0.048;2022-08-04T19:52:35;3.08;;;1.30;;
63282;SDS011;49407;51.388;0.048;2022-08-04T19:55:03;3.63;;;1.58;;
63282;SDS011;49407;51.388;0.048;2022-08-04T19:57:36;4.40;;;2.00;;
63282;SDS011;49407;51.388;0.048;2022-08-04T20:00:18;4.07;;;1.60;;
63282;SDS011;49407;51.388;0.048;2022-08-04T20:03:00;2.28;;;1.40;;
63282;SDS011;49407;51.388;0.048;2022-08-04T20:05:37;4.28;;;1.15;;
63282;SDS011;49407;51.388;0.048;2022-08-04T20:08:19;5.15;;;1.55;;
63282;SDS011;49407;51.388;0.048;2022-08-04T20:10:50;2.85;;;1.30;;
63282;SDS011;49407;51.388;0.048;2022-08-04T20:13:20;4.18;;;1.42;;
63282;SDS011;49407;51.388;0.048;2022-08-04T20:15:50;2.20;;;1.00;;
63282;SDS011;49407;51.388;0.048;2022-08-04T20:18:24;1.70;;;0.70;;
63282;SDS011;49407;51.388;0.048;2022-08-04T20:21:16;1.40;;;0.70;;
63282;SDS011;49407;51.388;0.048;2022-08-04T20:24:18;1.75;;;0.80;;
63282;SDS011;49407;51.388;0.048;2022-08-04T20:27:06;1.10;;;0.85;;
63282;SDS011;49407;51.388;0.048;2022-08-04T20:33:53;1.08;;;0.80;;
63282;SDS011;49407;51.388;0.048;2022-08-04T20:36:34;2.83;;;1.02;;
63282;SDS011;49407;51.388;0.048;2022-08-04T20:39:30;1.77;;;1.23;;
63282;SDS011;49407;51.388;0.048;2022-08-04T20:41:57;0.95;;;0.80;;
63282;SDS011;49407;51.388;0.048;2022-08-04T20:44:27;4.80;;;1.08;;
63282;SDS011;49407;51.388;0.048;2022-08-04T20:46:54;1.15;;;0.75;;
63282;SDS011;49407;51.388;0.048;2022-08-04T20:49:21;2.35;;;1.00;;
63282;SDS011;49407;51.388;0.048;2022-08-04T20:52:02;2.05;;;0.82;;
63282;SDS011;49407;51.388;0.048;2022-08-04T20:54:42;4.28;;;1.00;;
63282;SDS011;49407;51.388;0.048;2022-08-04T20:57:17;0.98;;;0.70;;
63282;SDS011;49407;51.388;0.048;2022-08-04T21:03:23;1.50;;;0.70;;
63282;SDS011;49407;51.388;0.048;2022-08-04T21:06:13;0.70;;;0.65;;
63282;SDS011;49407;51.388;0.048;2022-08-04T21:08:41;3.15;;;0.80;;
63282;SDS011;49407;51.388;0.048;2022-08-04T21:11:24;2.85;;;0.93;;
63282;SDS011;49407;51.388;0.048;2022-08-04T21:14:01;4.07;;;0.85;;
63282;SDS011;49407;51.388;0.048;2022-08-04T21:16:31;1.10;;;0.73;;
63282;SDS011;49407;51.388;0.048;2022-08-04T21:19:26;5.13;;;0.75;;
63282;SDS011;49407;51.388;0.048;2022-08-04T21:21:57;1.27;;;0.70;;
63282;SDS011;49407;51.388;0.048;2022-08-04T21:24:24;1.30;;;0.73;;
63282;SDS011;49407;51.388;0.048;2022-08-04T21:26:53;1.92;;;0.80;;
63282;SDS011;49407;51.388;0.048;2022-08-04T21:32:51;0.77;;;0.60;;
63282;SDS011;49407;51.388;0.048;2022-08-04T21:35:21;1.35;;;0.80;;
63282;SDS011;49407;51.388;0.048;2022-08-04T21:38:02;0.65;;;0.60;;
63282;SDS011;49407;51.388;0.048;2022-08-04T21:43:34;2.72;;;0.70;;
63282;SDS011;49407;51.388;0.048;2022-08-04T21:46:08;2.75;;;0.50;;
63282;SDS011;49407;51.388;0.048;2022-08-04T21:48:37;3.00;;;0.70;;
63282;SDS011;49407;51.388;0.048;2022-08-04T21:51:14;1.95;;;0.70;;
63282;SDS011;49407;51.388;0.048;2022-08-04T21:54:09;3.05;;;0.80;;
63282;SDS011;49407;51.388;0.048;2022-08-04T21:56:42;4.53;;;0.90;;
63282;SDS011;49407;51.388;0.048;2022-08-04T21:59:17;2.03;;;0.60;;
63282;SDS011;49407;51.388;0.048;2022-08-04T22:01:56;1.33;;;0.80;;
63282;SDS011;49407;51.388;0.048;2022-08-04T22:04:25;1.60;;;0.90;;
63282;SDS011;49407;51.388;0.048;2022-08-04T22:06:53;1.90;;;0.80;;
63282;SDS011;49407;51.388;0.048;2022-08-04T22:09:24;5.70;;;0.93;;
63282;SDS011;49407;51.388;0.048;2022-08-04T22:12:09;3.17;;;0.80;;
63282;SDS011;49407;51.388;0.048;2022-08-04T22:14:54;3.05;;;0.82;;
63282;SDS011;49407;51.388;0.048;2022-08-04T22:17:38;4.13;;;0.63;;
63282;SDS011;49407;51.388;0.048;2022-08-04T22:23:21;1.10;;;0.70;;
63282;SDS011;49407;51.388;0.048;2022-08-04T22:25:50;2.05;;;0.70;;
63282;SDS011;49407;51.388;0.048;2022-08-04T22:28:21;2.63;;;0.82;;
63282;SDS011;49407;51.388;0.048;2022-08-04T22:34:23;1.15;;;0.60;;
63282;SDS011;49407;51.388;0.048;2022-08-04T22:36:50;1.15;;;0.63;;
63282;SDS011;49407;51.388;0.048;2022-08-04T22:39:19;1.85;;;0.57;;
63282;SDS011;49407;51.388;0.048;2022-08-04T22:41:53;3.03;;;0.80;;
63282;SDS011;49407;51.388;0.048;2022-08-04T22:44:30;3.55;;;0.88;;
63282;SDS011;49407;51.388;0.048;2022-08-04T22:46:58;1.73;;;0.57;;
63282;SDS011;49407;51.388;0.048;2022-08-04T22:49:25;4.05;;;0.60;;
63282;SDS011;49407;51.388;0.048;2022-08-04T22:51:57;3.60;;;0.70;;
63282;SDS011;49407;51.388;0.048;2022-08-04T22:54:24;1.52;;;0.52;;
63282;SDS011;49407;51.388;0.048;2022-08-04T22:56:55;1.77;;;0.70;;